Latest Weather Observations for Williamson

IDQ60801

Issued at 9:35 pm EST Tuesday 30 September 2014 (issued every 30 minutes, with the page automatically refreshed every 10 minutes)

About weather observations | Map of weather stations | Latest weather observations for QLD | Other Formats
Station Details ID: 033195 Name: WILLIAMSON Lat: -22.47 Lon: 150.18 Height: 27.6 m
Data from the previous 72 hours. | See also: Recent months at Williamson
Date/Time
EST
Temp
°C
App
Temp
°C
Dew
Point
Rel
Hum
%
Delta-T
°C
Wind Press
QNH
hPa
Press
MSL
hPa
Rain
since 9 am
mm
Dir
 
Spd
km/h
Gust
km/h
Spd
kts
Gust
kts
30/09:30pm 15.1 15.9 12.4 84 1.5 NE 0 0 0 0 1020.3 1020.2 0.0
30/09:00pm 15.7 16.5 12.5 81 1.8 NE 0 0 0 0 1020.3 1020.2 0.0
30/08:30pm 16.6 17.5 12.8 78 2.1 CALM 0 0 0 0 1020.0 1019.9 0.0
30/08:00pm 17.6 18.5 12.9 74 2.6 CALM 0 0 0 0 1019.8 1019.7 0.0
30/07:30pm 18.8 19.0 13.0 69 3.3 NE 4 7 2 4 1019.5 1019.4 0.0
30/07:00pm 20.2 20.1 13.4 65 3.9 NE 6 7 3 4 1019.0 1018.9 0.0
30/06:30pm 20.9 20.8 13.4 62 4.3 NNE 6 11 3 6 1018.6 1018.5 0.0
30/06:00pm 21.6 20.9 13.2 59 4.8 NNE 9 17 5 9 1018.1 1018.0 0.0
30/05:30pm 22.5 21.4 13.0 55 5.5 NNE 11 20 6 11 1017.8 1017.7 0.0
30/05:00pm 23.0 21.3 12.6 52 5.9 NNE 13 24 7 13 1017.4 1017.3 0.0
30/04:30pm 23.4 20.9 12.4 50 6.3 NNE 17 28 9 15 1017.2 1017.1 0.0
30/04:00pm 23.9 21.0 12.2 48 6.7 NNE 19 30 10 16 1017.2 1017.1 0.0
30/03:30pm 24.9 22.7 12.2 45 7.3 NNE 15 28 8 15 1017.1 1017.0 0.0
30/03:00pm 25.0 22.4 11.9 44 7.5 N 17 28 9 15 1017.2 1017.1 0.0
30/02:30pm 25.0 21.8 11.2 42 7.8 N 19 26 10 14 1017.5 1017.4 0.0
30/02:00pm 25.5 23.0 12.4 44 7.5 N 17 32 9 17 1017.6 1017.5 0.0
30/01:30pm 25.8 23.5 13.0 45 7.5 NNE 17 30 9 16 1018.1 1018.0 0.0
30/01:00pm 25.6 23.2 12.8 45 7.4 NNE 17 28 9 15 1018.6 1018.5 0.0
30/12:30pm 25.8 23.4 12.6 44 7.6 NNE 17 30 9 16 1019.1 1019.0 0.0
30/12:00pm 26.0 23.9 12.5 43 7.8 NNE 15 28 8 15 1019.6 1019.5 0.0
30/11:30am 26.3 24.6 12.4 42 8.0 NE 13 20 7 11 1020.2 1020.1 0.0
30/11:00am 25.9 24.1 12.0 42 7.9 NE 13 20 7 11 1020.7 1020.6 0.0
30/10:30am 24.6 22.7 11.9 45 7.2 NE 13 26 7 14 1021.1 1021.0 0.0
30/10:00am 24.4 22.1 11.7 45 7.2 NE 15 24 8 13 1021.5 1021.4 0.0
30/09:30am 23.9 22.1 12.2 48 6.7 NE 13 19 7 10 1021.7 1021.6 0.0
30/09:00am 23.5 22.2 12.5 50 6.3 NE 11 20 6 11 1021.6 1021.5 0.0
30/08:30am 22.6 22.5 13.9 58 5.1 ENE 7 15 4 8 1021.5 1021.4 0.0
30/08:00am 21.4 21.6 14.1 63 4.2 S 6 9 3 5 1021.3 1021.2 0.0
30/07:30am 19.0 19.2 14.1 73 2.8 S 6 9 3 5 1021.1 1021.0 0.0
30/07:00am 16.5 16.4 13.4 82 1.7 S 6 9 3 5 1020.8 1020.7 0.0
30/06:30am 13.0 13.7 12.1 94 0.5 CALM 0 7 0 4 1020.6 1020.5 0.0
30/06:00am 11.1 11.3 10.5 96 0.3 SSE 0 0 0 0 1020.2 1020.1 0.0
30/05:30am 10.7 10.7 9.9 95 0.4 CALM 0 0 0 0 1020.0 1019.9 0.0
30/05:00am 11.0 11.1 10.2 95 0.4 CALM 0 0 0 0 1019.8 1019.7 0.0
30/04:30am 11.1 11.2 10.2 94 0.5 CALM 0 0 0 0 1019.5 1019.4 0.0
30/04:00am 11.4 11.6 10.5 94 0.5 CALM 0 0 0 0 1019.3 1019.2 0.0
30/03:30am 11.8 12.1 10.9 94 0.5 CALM 0 0 0 0 1019.1 1019.0 0.0
30/03:00am 11.8 12.1 10.9 94 0.5 S 0 0 0 0 1019.1 1019.0 0.0
30/02:30am 12.1 12.4 11.0 93 0.6 CALM 0 0 0 0 1019.2 1019.1 0.0
30/02:00am 12.6 13.0 11.3 92 0.7 CALM 0 0 0 0 1019.4 1019.3 0.0
30/01:30am 12.9 13.4 11.6 92 0.7 CALM 0 0 0 0 1019.6 1019.5 0.0
30/01:00am 13.4 14.0 11.8 90 0.9 CALM 0 0 0 0 1019.9 1019.8 0.0
30/12:30am 13.8 14.4 12.0 89 1.0 CALM 0 0 0 0 1020.0 1019.9 0.0
30/12:00am 14.4 15.1 12.3 87 1.1 S 0 0 0 0 1020.2 1020.1 0.0
 
Date/Time
EST
Temp
°C
App
Temp
°C
Dew
Point
Rel
Hum
%
Delta-T
°C
Wind Press
QNH
hPa
Press
MSL
hPa
Rain
since 9 am
mm
Dir
 
Spd
km/h
Gust
km/h
Spd
kts
Gust
kts
29/11:30pm 15.2 16.0 12.7 85 1.4 CALM 0 0 0 0 1020.3 1020.2 0.0
29/11:00pm 16.4 16.5 12.8 79 2.0 WSW 4 9 2 5 1020.6 1020.5 0.0
29/10:30pm 17.1 16.8 12.6 75 2.5 SSW 6 9 3 5 1020.6 1020.5 0.0
29/10:00pm 18.8 19.0 13.2 70 3.2 WNW 4 9 2 5 1020.6 1020.5 0.0
29/09:30pm 19.5 19.0 13.7 69 3.3 E 9 15 5 8 1020.4 1020.3 0.0
29/09:00pm 20.0 19.9 13.9 68 3.5 SSW 7 17 4 9 1020.2 1020.1 0.0
29/08:30pm 19.4 19.4 13.6 69 3.3 N 6 13 3 7 1019.9 1019.8 0.0
29/08:00pm 19.9 20.2 13.4 66 3.7 NE 4 11 2 6 1019.6 1019.5 0.0
29/07:30pm 20.1 18.2 13.1 64 4.0 ENE 15 22 8 12 1019.0 1018.9 0.0
29/07:00pm 20.4 19.8 13.4 64 4.0 ESE 9 17 5 9 1018.7 1018.6 0.0
29/06:30pm 20.9 20.0 13.6 63 4.2 ENE 11 20 6 11 1018.4 1018.3 0.0
29/06:00pm 21.6 20.3 13.8 61 4.5 ENE 13 24 7 13 1018.0 1017.9 0.0
29/05:30pm 22.5 21.2 13.8 58 5.1 ENE 13 24 7 13 1017.7 1017.6 0.0
29/05:00pm 23.8 22.2 13.9 54 5.8 E 15 28 8 15 1017.4 1017.3 0.0
29/04:30pm 24.2 21.8 13.7 52 6.1 E 19 32 10 17 1017.0 1016.9 0.0
29/04:00pm 24.5 22.0 13.4 50 6.5 E 19 32 10 17 1016.8 1016.7 0.0
29/03:30pm 25.4 23.3 13.6 48 6.9 E 17 37 9 20 1016.8 1016.7 0.0
29/03:00pm 25.5 22.9 13.7 48 6.9 ENE 20 35 11 19 1016.8 1016.7 0.0
29/02:30pm 25.7 23.1 13.2 46 7.3 NE 19 32 10 17 1017.0 1016.9 0.0
29/02:00pm 26.1 23.7 13.9 47 7.2 ENE 19 32 10 17 1017.3 1017.2 0.0
29/01:30pm 25.6 23.5 13.5 47 7.1 ENE 17 33 9 18 1017.6 1017.5 0.0
29/01:00pm 25.2 23.2 14.0 49 6.6 NE 17 30 9 16 1018.1 1018.0 0.0
29/12:30pm 25.3 23.3 13.8 49 6.8 NE 17 30 9 16 1018.6 1018.5 0.0
29/12:00pm 25.5 22.3 14.3 50 6.6 ENE 24 30 13 16 1019.0 1018.9 0.0
29/11:30am 24.9 23.3 13.8 50 6.5 ENE 15 24 8 13 1019.4 1019.3 0.0
29/11:00am 25.2 23.4 13.4 48 6.9 ENE 15 26 8 14 1019.9 1019.8 0.0
29/10:30am 24.7 23.4 13.6 50 6.5 NE 13 24 7 13 1020.1 1020.0 0.0
29/10:00am 24.8 23.6 14.0 51 6.4 E 13 24 7 13 1020.5 1020.4 0.0
29/09:30am 24.1 22.9 13.9 53 6.0 ENE 13 22 7 12 1020.6 1020.5 0.0
29/09:00am 23.6 22.7 14.9 58 5.2 E 13 24 7 13 1020.6 1020.5 0.0
29/08:30am 22.9 22.1 15.0 61 4.7 E 13 28 7 15 1020.6 1020.5 0.0
29/08:00am 21.1 22.0 16.1 73 3.0 SW 6 9 3 5 1020.7 1020.6 0.0
29/07:30am 19.7 21.8 16.3 81 2.0 CALM 0 6 0 3 1020.4 1020.3 0.0
29/07:00am 17.0 18.7 15.2 89 1.0 CALM 0 0 0 0 1020.2 1020.1 0.0
29/06:30am 14.4 15.6 13.9 97 0.3 CALM 0 0 0 0 1019.9 1019.8 0.0
29/06:00am 13.1 13.9 12.6 97 0.3 CALM 0 0 0 0 1019.5 1019.4 0.0
29/05:30am 13.1 13.9 12.5 96 0.3 CALM 0 0 0 0 1019.1 1019.0 0.0
29/05:00am 13.7 14.7 13.1 96 0.3 CALM 0 0 0 0 1018.8 1018.7 0.0
29/04:30am 13.8 13.7 13.2 96 0.3 SSE 6 9 3 5 1018.7 1018.6 0.0
29/04:00am 14.3 15.1 13.7 96 0.3 S 2 6 1 3 1018.6 1018.5 0.0
29/03:30am 14.6 15.5 14.0 96 0.3 S 2 6 1 3 1018.6 1018.5 0.0
29/03:00am 14.3 15.4 13.5 95 0.4 CALM 0 0 0 0 1018.6 1018.5 0.0
29/02:30am 14.8 16.1 14.0 95 0.5 CALM 0 0 0 0 1018.7 1018.6 0.0
29/02:00am 14.9 16.2 14.1 95 0.5 CALM 0 0 0 0 1019.0 1018.9 0.0
29/01:30am 15.1 16.4 14.1 94 0.6 CALM 0 0 0 0 1019.2 1019.1 0.0
29/01:00am 15.3 16.7 14.3 94 0.6 CALM 0 0 0 0 1019.3 1019.2 0.0
29/12:30am 15.4 16.3 14.1 92 0.7 ESE 2 9 1 5 1019.4 1019.3 0.0
29/12:00am 16.1 17.7 14.8 92 0.7 CALM 0 0 0 0 1019.5 1019.4 0.0
 
Date/Time
EST
Temp
°C
App
Temp
°C
Dew
Point
Rel
Hum
%
Delta-T
°C
Wind Press
QNH
hPa
Press
MSL
hPa
Rain
since 9 am
mm
Dir
 
Spd
km/h
Gust
km/h
Spd
kts
Gust
kts
28/11:30pm 16.8 18.0 15.0 89 1.0 ENE 2 9 1 5 1019.8 1019.7 0.0
28/11:00pm 19.0 19.8 15.9 82 1.8 E 6 9 3 5 1020.0 1019.9 0.0
28/10:30pm 19.4 19.8 16.2 82 1.9 E 9 11 5 6 1020.1 1020.0 0.0
28/10:00pm 18.9 20.1 15.9 83 1.8 ENE 4 7 2 4 1020.2 1020.1 0.0
28/09:30pm 19.4 20.3 16.2 82 1.9 E 6 7 3 4 1020.2 1020.1 0.0
28/09:00pm 19.9 20.9 16.3 80 2.2 E 6 11 3 6 1020.0 1019.9 0.0
28/08:30pm 20.1 20.9 16.3 79 2.3 ENE 7 11 4 6 1019.7 1019.6 0.0
28/08:00pm 20.0 20.6 15.8 77 2.5 E 7 11 4 6 1019.4 1019.3 0.0
28/07:30pm 20.1 22.0 15.7 76 2.6 CALM 0 4 0 2 1019.0 1018.9 0.0
28/07:00pm 20.9 21.6 16.1 74 2.9 NE 7 11 4 6 1018.7 1018.6 0.0
28/06:30pm 21.4 21.8 16.4 73 3.0 NNE 9 17 5 9 1018.3 1018.2 0.0
28/06:00pm 21.7 22.1 16.2 71 3.3 NE 9 17 5 9 1018.1 1018.0 0.0
28/05:30pm 22.3 22.4 15.6 66 4.0 NE 9 17 5 9 1017.7 1017.6 0.0
28/05:00pm 23.0 22.0 15.6 63 4.4 NNE 15 26 8 14 1017.5 1017.4 0.0
28/04:30pm 23.7 23.4 15.5 60 4.9 NNE 11 19 6 10 1017.3 1017.2 0.0
28/04:00pm 24.3 22.9 15.5 58 5.3 NNE 17 28 9 15 1017.2 1017.1 0.0
28/03:30pm 24.4 23.4 15.6 58 5.3 N 15 22 8 12 1017.3 1017.2 0.0
28/03:00pm 24.0 22.6 15.5 59 5.1 N 17 24 9 13 1017.3 1017.2 0.0
28/02:30pm 24.0 23.3 15.5 59 5.1 N 13 22 7 12 1017.4 1017.3 0.0
28/02:00pm 24.4 23.8 15.6 58 5.3 N 13 22 7 12 1017.6 1017.5 0.0
28/01:30pm 23.9 24.1 15.7 60 5.0 N 9 20 5 11 1017.9 1017.8 0.0
28/01:00pm 24.9 23.9 15.5 56 5.7 N 15 26 8 14 1017.9 1017.8 0.0
28/12:30pm 24.7 22.3 14.5 53 6.1 NNE 20 30 11 16 1018.1 1018.0 0.0
28/12:00pm 24.6 22.3 14.7 54 5.9 NNE 20 28 11 15 1018.5 1018.4 0.0
28/11:30am 26.0 24.7 14.8 50 6.7 NE 15 26 8 14 1018.9 1018.8 0.0
28/11:00am 25.7 24.1 13.9 48 7.0 NNE 15 24 8 13 1019.3 1019.2 0.0
28/10:30am 26.3 24.6 12.4 42 8.0 NE 13 20 7 11 1019.8 1019.7 0.0
28/10:00am 25.5 24.6 13.7 48 6.9 N 11 20 6 11 1020.1 1020.0 0.0
28/09:30am 23.4 24.1 16.2 64 4.4 W 7 11 4 6 1020.2 1020.1 0.0
28/09:00am 22.9 23.8 16.2 66 4.1 W 6 9 3 5 1020.2 1020.1 0.0
28/08:30am 21.7 23.3 16.9 74 2.9 SW 4 7 2 4 1020.2 1020.1 0.0
28/08:00am 19.5 20.7 16.9 85 1.6 WSW 6 9 3 5 1020.2 1020.1 0.0
28/07:30am 17.7 19.3 15.9 89 1.1 SSW 2 6 1 3 1019.9 1019.8 0.0
28/07:00am 16.0 16.5 14.9 93 0.6 S 6 7 3 4 1019.8 1019.7 0.0
28/06:30am 14.4 14.5 13.9 97 0.3 SSW 6 7 3 4 1019.4 1019.3 0.0
28/06:00am 13.6 13.4 13.1 97 0.3 SSE 6 7 3 4 1018.9 1018.8 0.0
28/05:30am 13.6 13.3 13.3 98 0.2 SSE 7 11 4 6 1018.4 1018.3 0.0
28/05:00am 12.2 12.7 11.7 97 0.3 CALM 0 0 0 0 1017.8 1017.7 0.0
28/04:30am 12.5 13.1 12.0 97 0.3 CALM 0 0 0 0 1017.5 1017.4 0.0
28/04:00am 12.4 13.0 11.8 96 0.3 CALM 0 0 0 0 1017.3 1017.2 0.0
28/03:30am 12.7 13.4 12.1 96 0.3 CALM 0 0 0 0 1017.5 1017.4 0.0
28/03:00am 12.8 13.5 12.2 96 0.3 CALM 0 0 0 0 1017.6 1017.5 0.0
28/02:30am 13.3 14.1 12.5 95 0.4 CALM 0 0 0 0 1017.6 1017.5 0.0
28/02:00am 13.8 14.8 13.2 96 0.3 CALM 0 0 0 0 1017.8 1017.7 0.0
28/01:30am 14.0 15.0 13.2 95 0.4 CALM 0 0 0 0 1017.8 1017.7 0.0
28/01:00am 14.5 15.7 13.7 95 0.4 CALM 0 0 0 0 1017.8 1017.7 0.0
28/12:30am 14.9 16.2 14.1 95 0.5 CALM 0 0 0 0 1018.0 1017.9 0.0
28/12:00am 15.2 16.5 14.2 94 0.6 CALM 0 0 0 0 1018.3 1018.2 0.0
 
Date/Time
EST
Temp
°C
App
Temp
°C
Dew
Point
Rel
Hum
%
Delta-T
°C
Wind Press
QNH
hPa
Press
MSL
hPa
Rain
since 9 am
mm
Dir
 
Spd
km/h
Gust
km/h
Spd
kts
Gust
kts
27/11:30pm 15.7 17.2 14.7 94 0.6 CALM 0 0 0 0 1018.4 1018.3 0.0
27/11:00pm 16.2 17.9 15.1 93 0.6 CALM 0 7 0 4 1018.5 1018.4 0.0
27/10:30pm 16.8 18.7 15.7 93 0.6 CALM 0 0 0 0 1018.6 1018.5 0.0
27/10:00pm 17.4 19.3 15.7 90 1.0 CALM 0 0 0 0 1018.4 1018.3 0.0

Other Formats:

Comma delimited format used in spreadsheet applications
http://www.bom.gov.au/fwo/IDQ60801/IDQ60801.95370.axf

JavaScript Object Notation format (JSON) in row-major order
http://www.bom.gov.au/fwo/IDQ60801/IDQ60801.95370.json